Time;durP1;ratioP1;P1;durP2;ratioP2;P2;SDS_P1;SDS_P2;PMS_P1;PMS_P2;Temp;Humidity;BMP_temperature;BMP_pressure;BME280_temperature;BME280_humidity;BME280_pressure;Samples;Min_cycle;Max_cycle;Signal;HPM_P1;HPM_P2
2022/03/17 00:00:01;;;;;;;11.70;9.57;;;;;;;10.54;81.44;100166.53;5016778;28;20792;-90
2022/03/17 00:02:26;;;;;;;11.10;9.15;;;;;;;10.53;81.68;100167.53;5015537;28;20029;-91
2022/03/17 00:04:52;;;;;;;11.88;8.88;;;;;;;10.53;81.90;100170.19;4999629;28;20018;-90
2022/03/17 00:07:18;;;;;;;10.77;8.73;;;;;;;10.54;81.25;100171.88;5001146;28;20025;-90
2022/03/17 00:09:43;;;;;;;10.52;8.88;;;;;;;10.53;81.54;100167.53;5015835;28;20049;-90
2022/03/17 00:12:09;;;;;;;11.45;8.93;;;;;;;10.52;81.60;100168.50;4999536;28;20592;-91
2022/03/17 00:14:35;;;;;;;11.57;9.15;;;;;;;10.51;81.91;100163.28;4999107;28;20045;-92
2022/03/17 00:17:00;;;;;;;12.30;8.57;;;;;;;10.50;81.62;100161.59;5000502;28;20025;-91
2022/03/17 00:19:26;;;;;;;11.43;8.65;;;;;;;10.51;81.85;100152.59;4999620;28;20040;-91
2022/03/17 00:21:52;;;;;;;11.30;9.02;;;;;;;10.51;81.54;100152.59;4999234;28;20480;-91
2022/03/17 00:24:17;;;;;;;11.77;8.82;;;;;;;10.50;81.85;100157.09;4999611;28;20029;-91
2022/03/17 00:26:42;;;;;;;14.57;8.73;;;;;;;10.50;81.63;100148.22;4999480;28;20030;-91
2022/03/17 00:29:08;;;;;;;10.50;8.73;;;;;;;10.50;82.07;100162.44;5016063;28;20576;-91
2022/03/17 00:31:37;;;;;;;12.40;8.73;;;;;;;10.49;81.79;100158.06;5002158;28;20029;-92
2022/03/17 00:34:03;;;;;;;11.90;8.55;;;;;;;10.50;81.95;100158.91;5017388;28;20438;-91
2022/03/17 00:36:28;;;;;;;9.60;8.13;;;;;;;10.50;82.29;100169.59;5014928;28;20030;-91
2022/03/17 00:38:54;;;;;;;11.23;8.85;;;;;;;10.49;82.03;100165.25;5000519;28;20026;-90
2022/03/17 00:41:19;;;;;;;10.45;8.50;;;;;;;10.48;81.86;100161.72;5016279;28;20972;-90
2022/03/17 00:43:44;;;;;;;11.27;8.52;;;;;;;10.46;82.06;100160.16;4998258;28;20041;-90
2022/03/17 00:46:10;;;;;;;11.27;9.23;;;;;;;10.47;82.13;100159.19;5000545;28;20129;-91
2022/03/17 00:48:35;;;;;;;13.00;9.00;;;;;;;10.45;82.30;100162.00;4998967;28;20033;-92
2022/03/17 00:51:00;;;;;;;12.55;8.93;;;;;;;10.44;82.90;100157.63;4999823;28;20033;-91
2022/03/17 00:53:26;;;;;;;12.38;9.18;;;;;;;10.43;81.99;100163.09;5012777;28;20041;-91
2022/03/17 00:55:51;;;;;;;11.88;9.40;;;;;;;10.41;82.40;100149.88;5013908;28;20030;-91
2022/03/17 00:58:16;;;;;;;10.93;8.50;;;;;;;10.41;82.67;100144.53;5000117;28;20029;-87
2022/03/17 01:00:42;;;;;;;14.60;9.27;;;;;;;10.43;82.17;100144.38;5015451;28;20038;-91
2022/03/17 01:03:08;;;;;;;12.55;8.88;;;;;;;10.43;82.65;100144.38;4998516;28;20034;-92
2022/03/17 01:05:34;;;;;;;14.23;9.25;;;;;;;10.39;82.52;100147.28;4997904;28;20036;-91
2022/03/17 01:07:59;;;;;;;11.48;8.65;;;;;;;10.44;82.84;100162.13;5016022;28;20034;-88
2022/03/17 01:10:25;;;;;;;10.68;8.48;;;;;;;10.46;82.59;100154.81;5002502;28;20034;-91
2022/03/17 01:12:50;;;;;;;10.98;8.30;;;;;;;10.49;82.77;100157.22;4999198;28;20037;-90
2022/03/17 01:15:17;;;;;;;12.05;8.90;;;;;;;10.51;82.44;100161.47;5023938;28;20518;-91
2022/03/17 01:17:42;;;;;;;14.68;9.18;;;;;;;10.54;82.70;100169.22;4998515;28;20034;-91
2022/03/17 01:20:18;;;;;;;11.25;8.98;;;;;;;10.58;82.75;100162.63;4999322;28;20033;-91
2022/03/17 01:22:43;;;;;;;14.27;9.43;;;;;;;10.61;82.80;100162.34;4999635;28;20128;-91
2022/03/17 01:25:09;;;;;;;14.80;11.27;;;;;;;10.62;82.68;100160.53;5001775;28;20121;-91
2022/03/17 01:27:34;;;;;;;15.13;10.73;;;;;;;10.60;82.69;100163.31;5014802;28;20120;-91
2022/03/17 01:30:00;;;;;;;12.98;9.50;;;;;;;10.60;82.69;100163.31;5016535;28;20112;-91
2022/03/17 01:32:25;;;;;;;14.57;10.85;;;;;;;10.59;82.28;100161.63;5016217;28;20029;-91
2022/03/17 01:34:51;;;;;;;15.65;11.68;;;;;;;10.60;82.62;100166.00;5000496;28;20022;-91
2022/03/17 01:37:16;;;;;;;14.98;10.25;;;;;;;10.62;82.61;100163.19;4999276;28;20640;-91
2022/03/17 01:39:42;;;;;;;13.68;10.27;;;;;;;10.63;82.92;100172.91;5002263;28;20033;-91
2022/03/17 01:42:09;;;;;;;14.43;11.73;;;;;;;10.63;82.93;100168.41;4999785;28;20079;-91
2022/03/17 01:44:35;;;;;;;14.60;10.13;;;;;;;10.66;82.63;100157.44;4999777;28;20125;-90
2022/03/17 01:49:44;;;;;;;15.27;10.98;;;;;;;10.67;82.94;100166.31;5017993;28;20519;-91
2022/03/17 01:52:09;;;;;;;15.52;11.25;;;;;;;10.66;82.98;100172.66;5015336;28;20038;-91
2022/03/17 01:54:35;;;;;;;15.95;11.55;;;;;;;10.67;82.94;100174.34;4998066;28;20050;-91
2022/03/17 01:57:02;;;;;;;15.82;10.57;;;;;;;10.65;83.11;100169.13;4999357;28;20029;-91
2022/03/17 01:59:29;;;;;;;13.43;10.63;;;;;;;10.66;83.04;100167.28;5007519;28;20969;-90
2022/03/17 02:01:57;;;;;;;14.90;10.68;;;;;;;10.67;83.16;100163.63;5015455;28;20046;-91
2022/03/17 02:04:22;;;;;;;16.02;11.48;;;;;;;10.64;83.07;100167.44;5015268;28;20779;-90
2022/03/17 02:06:48;;;;;;;14.50;10.88;;;;;;;10.63;82.70;100170.25;4998016;28;20044;-91
2022/03/17 02:09:14;;;;;;;14.18;11.32;;;;;;;10.64;83.25;100169.25;5017420;28;20040;-91
2022/03/17 02:14:24;;;;;;;18.25;12.70;;;;;;;10.63;83.59;100173.75;5016480;28;20972;-88
2022/03/17 02:16:50;;;;;;;15.45;11.13;;;;;;;10.63;83.55;100176.44;5014734;28;20116;-90
2022/03/17 02:19:16;;;;;;;18.08;13.05;;;;;;;10.64;83.60;100174.59;5018433;28;20029;-88
2022/03/17 02:21:44;;;;;;;15.02;11.77;;;;;;;10.62;83.59;100166.72;5001687;28;20498;-92
2022/03/17 02:26:54;;;;;;;14.93;11.82;;;;;;;10.61;83.89;100162.34;5017858;28;20044;-91
2022/03/17 02:29:26;;;;;;;20.35;13.23;;;;;;;10.62;83.56;100169.41;5001683;28;20030;-91
2022/03/17 02:31:51;;;;;;;17.05;12.55;;;;;;;10.61;84.21;100167.69;5003649;28;20035;-91
2022/03/17 02:34:18;;;;;;;15.57;11.90;;;;;;;10.63;84.20;100170.25;5019279;28;20030;-91
2022/03/17 02:36:50;;;;;;;17.92;12.80;;;;;;;10.63;84.02;100165.75;5019313;28;20047;-92
2022/03/17 02:39:17;;;;;;;17.00;12.55;;;;;;;10.61;84.13;100175.72;5003715;28;20134;-88
2022/03/17 02:41:43;;;;;;;15.25;11.43;;;;;;;10.61;84.25;100167.69;5001406;28;20455;-90
2022/03/17 02:44:09;;;;;;;21.95;13.25;;;;;;;10.62;84.59;100182.75;5000472;28;20064;-90
2022/03/17 02:46:35;;;;;;;18.45;12.40;;;;;;;10.62;84.23;100184.59;5018397;28;20029;-91
2022/03/17 02:49:00;;;;;;;19.13;12.88;;;;;;;10.67;84.62;100179.69;5018601;28;20034;-91
2022/03/17 02:51:25;;;;;;;16.83;13.50;;;;;;;10.67;84.54;100177.88;5018525;28;20052;-91
2022/03/17 02:53:51;;;;;;;20.02;13.65;;;;;;;10.67;84.79;100185.03;5001774;28;20052;-91
2022/03/17 02:56:16;;;;;;;19.05;13.55;;;;;;;10.67;84.97;100193.06;5001417;28;20080;-91
2022/03/17 02:58:41;;;;;;;16.73;13.02;;;;;;;10.68;84.83;100197.44;5019136;28;20065;-91
2022/03/17 03:01:07;;;;;;;19.50;12.80;;;;;;;10.68;84.80;100205.47;5016487;28;20116;-90
2022/03/17 03:03:32;;;;;;;18.55;13.65;;;;;;;10.69;85.23;100215.16;5002022;28;20038;-91
2022/03/17 03:05:57;;;;;;;19.35;13.75;;;;;;;10.69;85.30;100210.66;5001592;28;20125;-91
2022/03/17 03:08:24;;;;;;;18.67;13.95;;;;;;;10.69;85.40;100213.34;5001028;28;20164;-90
2022/03/17 03:10:49;;;;;;;19.77;14.40;;;;;;;10.72;85.39;100215.75;5002638;28;20106;-90
2022/03/17 03:13:15;;;;;;;21.42;14.48;;;;;;;10.71;85.37;100215.88;5048118;28;20026;-89
2022/03/17 03:15:40;;;;;;;18.05;13.38;;;;;;;10.72;85.73;100226.44;5005981;28;20041;-91
2022/03/17 03:18:05;;;;;;;16.88;12.85;;;;;;;10.76;85.82;100240.41;4999682;28;20064;-92
2022/03/17 03:20:31;;;;;;;19.92;14.90;;;;;;;10.78;85.77;100242.94;5001679;28;20137;-90
2022/03/17 03:22:57;;;;;;;19.90;13.63;;;;;;;10.78;85.74;100248.31;5001270;28;20484;-92
2022/03/17 03:25:22;;;;;;;25.98;15.10;;;;;;;10.76;85.92;100248.44;4999950;28;20025;-91
2022/03/17 03:27:48;;;;;;;21.05;15.25;;;;;;;10.76;86.43;100256.47;5002362;28;20048;-91
2022/03/17 03:30:14;;;;;;;22.70;15.50;;;;;;;10.73;86.69;100265.59;5001572;28;20055;-91
2022/03/17 03:32:42;;;;;;;22.05;15.48;;;;;;;10.76;86.63;100269.84;5017452;28;20487;-91
2022/03/17 03:37:52;;;;;;;20.75;15.13;;;;;;;10.74;87.19;100271.78;5031706;28;21022;-91
2022/03/17 03:40:17;;;;;;;22.77;16.20;;;;;;;10.75;86.81;100276.16;4999890;28;20029;-91
2022/03/17 03:42:43;;;;;;;18.85;13.63;;;;;;;10.79;87.33;100279.41;5000704;28;20034;-89
2022/03/17 03:45:08;;;;;;;25.35;15.20;;;;;;;10.80;87.47;100283.78;5000992;28;20032;-92
2022/03/17 03:47:34;;;;;;;20.55;15.50;;;;;;;10.80;87.57;100284.63;5000368;28;20025;-90
2022/03/17 03:49:59;;;;;;;23.13;16.85;;;;;;;10.77;88.23;100286.72;5017646;28;20041;-92
2022/03/17 03:52:24;;;;;;;20.73;15.50;;;;;;;10.73;88.12;100292.34;5000011;28;20030;-92
2022/03/17 03:54:50;;;;;;;23.38;16.27;;;;;;;10.73;88.66;100291.50;5001744;28;20495;-92
2022/03/17 03:57:15;;;;;;;22.45;16.42;;;;;;;10.74;88.34;100298.53;4998617;28;20479;-91
2022/03/17 03:59:42;;;;;;;22.63;17.00;;;;;;;10.75;89.02;100310.09;5001115;28;20649;-92
2022/03/17 04:02:09;;;;;;;24.45;15.75;;;;;;;10.77;89.16;100311.66;5001389;28;20080;-91
2022/03/17 04:04:36;;;;;;;23.27;15.98;;;;;;;10.76;89.26;100319.81;4999891;28;20029;-89
2022/03/17 04:07:05;;;;;;;23.35;16.63;;;;;;;10.79;88.97;100312.38;4999533;28;20167;-91
2022/03/17 04:09:39;;;;;;;23.10;16.10;;;;;;;10.78;89.24;100318.69;5000794;28;20723;-92
2022/03/17 04:12:06;;;;;;;20.73;15.70;;;;;;;10.79;89.21;100330.25;5017325;28;20071;-91
2022/03/17 04:14:32;;;;;;;22.55;17.10;;;;;;;10.76;89.45;100336.72;5000545;28;20204;-91
2022/03/17 04:16:57;;;;;;;23.58;17.27;;;;;;;10.75;90.08;100342.19;5017241;28;20171;-91
2022/03/17 04:19:23;;;;;;;22.75;16.33;;;;;;;10.75;90.26;100344.88;4998759;28;20045;-91
2022/03/17 04:21:49;;;;;;;24.48;17.42;;;;;;;10.76;90.02;100358.09;4999923;28;20083;-90
2022/03/17 04:24:16;;;;;;;22.08;17.00;;;;;;;10.77;90.28;100364.31;5000662;28;20079;-91
2022/03/17 04:26:41;;;;;;;23.35;16.60;;;;;;;10.76;90.80;100370.63;4998363;28;20061;-92
2022/03/17 04:29:09;;;;;;;20.33;14.73;;;;;;;10.74;91.02;100378.78;5000070;28;20068;-92
2022/03/17 04:31:35;;;;;;;16.07;12.07;;;;;;;10.68;90.85;100382.84;5000571;28;20395;-91
2022/03/17 04:34:01;;;;;;;17.20;12.50;;;;;;;10.65;91.41;100400.97;5000755;28;20032;-92
2022/03/17 04:36:26;;;;;;;13.20;10.10;;;;;;;10.62;91.92;100404.75;5016717;28;20030;-91
2022/03/17 04:38:51;;;;;;;14.43;11.20;;;;;;;10.61;91.85;100411.06;4999692;28;20438;-91
2022/03/17 04:41:20;;;;;;;15.70;12.55;;;;;;;10.62;91.75;100418.09;5016901;28;20033;-91
2022/03/17 04:43:45;;;;;;;14.77;12.10;;;;;;;10.59;91.86;100422.88;4999863;28;20080;-91
2022/03/17 04:46:11;;;;;;;16.05;12.88;;;;;;;10.56;92.19;100428.47;4998987;28;20029;-92
2022/03/17 04:48:37;;;;;;;17.58;14.43;;;;;;;10.54;91.72;100431.28;5000623;28;20025;-91
2022/03/17 04:51:03;;;;;;;18.42;14.23;;;;;;;10.52;92.18;100438.56;5015391;28;20038;-91
2022/03/17 04:53:30;;;;;;;17.65;14.77;;;;;;;10.53;92.19;100434.06;5001564;28;20049;-92
2022/03/17 04:56:08;;;;;;;19.40;13.98;;;;;;;10.54;91.58;100443.78;5016829;28;20072;-91
2022/03/17 04:58:35;;;;;;;20.77;16.55;;;;;;;10.48;92.12;100450.50;4999830;28;20029;-91
2022/03/17 05:01:02;;;;;;;23.85;18.10;;;;;;;10.46;91.94;100464.97;4998449;28;20029;-92
2022/03/17 05:03:27;;;;;;;25.40;18.83;;;;;;;10.39;92.34;100469.94;4999446;28;20032;-91
2022/03/17 05:05:53;;;;;;;24.35;17.90;;;;;;;10.43;91.79;100468.72;5016267;28;20034;-92
2022/03/17 05:08:19;;;;;;;25.77;19.52;;;;;;;10.43;91.65;100481.25;5016019;28;20079;-91
2022/03/17 05:10:47;;;;;;;27.67;20.23;;;;;;;10.40;91.58;100493.00;4998602;28;20025;-90
2022/03/17 05:13:13;;;;;;;28.92;20.88;;;;;;;10.33;91.64;100498.00;5000985;28;20680;-91
2022/03/17 05:15:39;;;;;;;28.45;21.40;;;;;;;10.32;91.44;100514.16;5000006;28;20091;-90
2022/03/17 05:18:06;;;;;;;25.60;18.80;;;;;;;10.32;91.80;100531.06;5016677;28;20486;-91
2022/03/17 05:20:32;;;;;;;23.95;18.33;;;;;;;10.37;91.58;100533.38;5015850;28;20379;-92
2022/03/17 05:22:58;;;;;;;28.13;19.42;;;;;;;10.36;91.07;100539.69;4997911;28;20063;-91
2022/03/17 05:25:23;;;;;;;29.65;20.27;;;;;;;10.34;90.82;100542.47;5000271;28;20026;-88
2022/03/17 05:27:49;;;;;;;28.55;19.40;;;;;;;10.32;90.84;100547.09;5000070;28;20038;-92
2022/03/17 05:30:16;;;;;;;25.85;18.90;;;;;;;10.33;91.22;100555.97;4998740;28;20029;-91
2022/03/17 05:32:46;;;;;;;25.90;18.08;;;;;;;10.35;90.58;100570.91;5017452;28;20029;-91
2022/03/17 05:35:12;;;;;;;24.08;17.98;;;;;;;10.31;90.06;100574.81;5015718;28;20443;-90
2022/03/17 05:37:39;;;;;;;22.98;18.08;;;;;;;10.33;90.37;100578.22;5014928;28;20087;-91
2022/03/17 05:40:09;;;;;;;22.02;17.52;;;;;;;10.24;89.35;100578.94;5000296;28;20037;-90
2022/03/17 05:42:35;;;;;;;22.67;18.08;;;;;;;10.21;89.71;100597.03;4998520;28;20041;-89
2022/03/17 05:45:00;;;;;;;20.83;17.02;;;;;;;10.22;89.80;100591.56;5000877;28;20022;-91
2022/03/17 05:47:33;;;;;;;22.10;15.65;;;;;;;10.23;89.73;100606.63;4998338;28;20037;-91
2022/03/17 05:49:59;;;;;;;21.83;16.85;;;;;;;10.21;89.37;100613.06;5000356;28;20037;-91
2022/03/17 05:52:24;;;;;;;23.40;16.98;;;;;;;10.17;89.54;100616.91;5016487;28;20033;-91
2022/03/17 05:54:49;;;;;;;21.58;17.27;;;;;;;10.12;89.33;100621.78;5020752;28;20080;-91
2022/03/17 05:57:15;;;;;;;23.00;17.83;;;;;;;10.08;89.12;100631.84;5002679;28;20121;-91
2022/03/17 05:59:41;;;;;;;22.10;17.10;;;;;;;10.10;89.17;100636.09;5019906;28;20044;-91
2022/03/17 06:02:06;;;;;;;22.65;16.45;;;;;;;10.08;89.10;100640.72;5018974;28;20086;-88
2022/03/17 06:04:32;;;;;;;22.88;18.10;;;;;;;10.02;88.66;100646.53;5021943;28;20021;-90
2022/03/17 06:06:57;;;;;;;25.58;19.38;;;;;;;9.93;87.76;100646.34;5002855;28;20056;-89
2022/03/17 06:09:22;;;;;;;23.50;19.13;;;;;;;9.87;87.89;100661.03;5019441;28;20476;-92
2022/03/17 06:11:48;;;;;;;26.02;19.10;;;;;;;9.84;87.70;100668.44;5014540;28;20179;-87
2022/03/17 06:14:13;;;;;;;24.75;19.23;;;;;;;9.86;87.59;100674.50;5022127;28;20032;-91
2022/03/17 06:16:39;;;;;;;25.25;18.50;;;;;;;9.87;87.72;100682.41;5003286;28;20906;-89
2022/03/17 06:19:04;;;;;;;28.27;21.30;;;;;;;9.82;87.17;100695.25;5003515;28;20037;-91
2022/03/17 06:21:30;;;;;;;25.83;19.55;;;;;;;9.87;87.38;100693.09;5001349;28;20771;-91
2022/03/17 06:23:55;;;;;;;25.90;19.25;;;;;;;9.87;87.46;100705.59;5001953;28;20030;-91
2022/03/17 06:26:20;;;;;;;27.17;20.20;;;;;;;9.85;86.86;100702.19;5003122;28;20099;-90
2022/03/17 06:28:45;;;;;;;26.08;19.70;;;;;;;9.90;87.04;100721.41;5001771;28;20026;-91
2022/03/17 06:31:12;;;;;;;26.13;20.35;;;;;;;9.86;86.43;100717.25;5001786;28;20033;-91
2022/03/17 06:33:37;;;;;;;23.63;19.00;;;;;;;9.80;86.41;100718.56;5006172;28;20025;-91
2022/03/17 06:36:03;;;;;;;24.00;19.15;;;;;;;9.73;85.92;100730.66;5004423;28;20022;-91
2022/03/17 06:38:28;;;;;;;23.13;18.05;;;;;;;9.73;85.96;100736.00;5003228;28;20083;-91
2022/03/17 06:40:53;;;;;;;27.60;19.13;;;;;;;9.63;86.02;100743.84;5017820;28;20056;-91
2022/03/17 06:43:19;;;;;;;24.58;18.63;;;;;;;9.61;86.69;100747.59;5001977;28;20030;-90
2022/03/17 06:45:44;;;;;;;21.50;17.88;;;;;;;9.50;86.51;100751.06;5001606;28;20033;-91
2022/03/17 06:48:10;;;;;;;21.98;18.10;;;;;;;9.44;86.15;100757.66;5017877;28;20029;-91
2022/03/17 06:50:36;;;;;;;23.15;18.23;;;;;;;9.49;86.10;100761.84;5016520;28;20029;-90
2022/03/17 06:53:01;;;;;;;23.75;18.27;;;;;;;9.49;85.80;100772.53;5014757;28;20108;-91
2022/03/17 06:55:26;;;;;;;23.00;18.15;;;;;;;9.45;86.14;100779.88;5001491;28;20057;-88
2022/03/17 06:57:52;;;;;;;22.50;17.40;;;;;;;9.51;86.45;100771.44;4999886;28;20037;-90
2022/03/17 07:00:18;;;;;;;22.80;17.80;;;;;;;9.58;86.16;100778.06;5000106;28;20413;-90
2022/03/17 07:02:44;;;;;;;24.73;18.48;;;;;;;9.62;86.02;100787.53;5017785;28;20034;-91
2022/03/17 07:05:10;;;;;;;20.30;17.13;;;;;;;9.68;86.00;100789.75;5001729;28;20036;-91
2022/03/17 07:07:35;;;;;;;18.50;16.48;;;;;;;9.70;85.63;100792.31;4999960;28;20483;-89
2022/03/17 07:10:01;;;;;;;17.75;14.63;;;;;;;9.70;84.97;100795.84;5003278;28;20033;-89
2022/03/17 07:12:26;;;;;;;17.52;14.40;;;;;;;9.69;85.04;100795.97;5000074;28;20045;-90
2022/03/17 07:14:51;;;;;;;19.63;14.93;;;;;;;9.65;84.38;100800.66;5000008;28;20030;-90
2022/03/17 07:17:22;;;;;;;17.38;14.60;;;;;;;9.69;84.39;100807.50;5000743;28;20472;-89
2022/03/17 07:22:24;;;;;;;16.10;13.40;;;;;;;9.62;83.86;100824.94;5017145;28;20095;-91
2022/03/17 07:24:49;;;;;;;16.60;13.68;;;;;;;9.60;83.92;100834.88;4999120;28;20049;-91
2022/03/17 07:27:14;;;;;;;16.15;12.63;;;;;;;9.58;84.43;100846.63;4998653;28;20056;-91
2022/03/17 07:29:40;;;;;;;16.38;13.32;;;;;;;9.50;83.96;100849.00;4999280;28;20057;-90
2022/03/17 07:32:05;;;;;;;17.35;12.55;;;;;;;9.46;84.48;100835.84;5000072;28;20065;-91
2022/03/17 07:34:31;;;;;;;16.73;12.85;;;;;;;9.48;84.62;100846.44;5000766;28;20056;-91
2022/03/17 07:36:56;;;;;;;16.60;12.93;;;;;;;9.46;84.68;100843.00;4999493;28;20052;-90
2022/03/17 07:39:21;;;;;;;13.48;10.95;;;;;;;9.46;84.72;100862.56;4999224;28;20095;-90
2022/03/17 07:41:47;;;;;;;12.25;10.32;;;;;;;9.41;84.23;100861.16;4999870;28;20021;-90
2022/03/17 07:44:13;;;;;;;11.85;9.40;;;;;;;9.42;84.06;100865.53;5015208;28;20025;-90
2022/03/17 07:46:40;;;;;;;11.35;8.82;;;;;;;9.36;84.06;100865.94;4997752;28;20045;-90
2022/03/17 07:49:05;;;;;;;12.05;8.05;;;;;;;9.36;83.73;100881.97;5000413;28;20372;-90
2022/03/17 07:51:31;;;;;;;10.25;7.93;;;;;;;9.34;83.56;100883.91;4999952;28;20040;-90
2022/03/17 07:53:56;;;;;;;8.98;7.38;;;;;;;9.33;82.61;100893.72;5002581;28;20045;-90
2022/03/17 07:56:21;;;;;;;8.55;6.90;;;;;;;9.27;82.96;100890.63;5000392;28;20029;-90
2022/03/17 07:58:47;;;;;;;8.48;6.93;;;;;;;9.33;82.86;100892.88;5000902;28;20045;-90
2022/03/17 08:01:15;;;;;;;8.05;6.35;;;;;;;9.35;82.72;100904.28;5019215;28;20030;-90
2022/03/17 08:03:40;;;;;;;8.23;6.30;;;;;;;9.37;82.32;100905.88;5005494;28;20034;-90
2022/03/17 08:06:06;;;;;;;8.95;6.72;;;;;;;9.40;82.72;100908.34;5005942;28;20033;-90
2022/03/17 08:08:32;;;;;;;7.80;6.05;;;;;;;9.45;82.35;100916.88;5018182;28;20112;-90
2022/03/17 08:10:57;;;;;;;8.70;6.57;;;;;;;9.47;82.70;100919.47;5001826;28;20120;-90
2022/03/17 08:13:25;;;;;;;9.85;6.90;;;;;;;9.42;82.49;100924.25;5002949;28;20113;-90
2022/03/17 08:15:50;;;;;;;7.78;6.65;;;;;;;9.37;82.63;100923.72;5000747;28;20954;-90
2022/03/17 08:18:16;;;;;;;7.93;6.20;;;;;;;9.35;83.19;100933.66;5000739;28;20060;-90
2022/03/17 08:20:45;;;;;;;9.45;6.38;;;;;;;9.41;83.16;100928.75;5000123;28;20072;-90
2022/03/17 08:23:11;;;;;;;8.25;6.47;;;;;;;9.47;83.35;100927.50;5015333;28;20041;-90
2022/03/17 08:25:37;;;;;;;8.38;6.47;;;;;;;9.49;83.55;100938.06;5000227;28;20029;-88
2022/03/17 08:28:03;;;;;;;9.35;6.07;;;;;;;9.45;83.19;100940.91;4997347;28;20055;-90
2022/03/17 08:30:36;;;;;;;7.43;5.70;;;;;;;9.43;83.37;100950.84;4998684;28;20030;-90
2022/03/17 08:33:01;;;;;;;7.78;5.63;;;;;;;9.42;83.24;100943.78;5001067;28;20037;-90
2022/03/17 08:35:27;;;;;;;7.13;5.40;;;;;;;9.48;83.17;100955.03;5015528;28;20530;-90
2022/03/17 08:37:53;;;;;;;6.63;5.13;;;;;;;9.42;82.97;100961.63;5014559;28;20088;-90
2022/03/17 08:40:18;;;;;;;5.85;4.88;;;;;;;9.41;83.02;100973.25;5023582;28;20088;-90
2022/03/17 08:42:43;;;;;;;4.88;4.38;;;;;;;9.42;83.16;100977.66;4999652;28;20499;-90
2022/03/17 08:50:40;;;;;;;6.38;4.65;;;;;;;9.15;83.48;100999.06;5024075;28;20048;-91
2022/03/17 08:53:05;;;;;;;5.72;4.50;;;;;;;9.18;84.11;101012.22;5025234;28;20052;-91
2022/03/17 08:55:31;;;;;;;5.43;3.45;;;;;;;9.00;83.22;101011.63;5014730;28;20038;-90
2022/03/17 08:57:57;;;;;;;6.38;3.22;;;;;;;8.58;82.92;101017.09;5000988;28;20025;-90
2022/03/17 09:00:23;;;;;;;7.03;3.30;;;;;;;8.71;83.66;101026.84;4998236;28;20041;-90
2022/03/17 09:02:48;;;;;;;6.38;3.78;;;;;;;8.76;84.01;101024.75;5016108;28;20040;-90
2022/03/17 09:05:14;;;;;;;5.10;3.75;;;;;;;8.86;83.74;101033.00;4998799;28;20022;-90
2022/03/17 09:07:40;;;;;;;4.97;3.92;;;;;;;8.91;83.52;101028.22;4998248;28;20029;-90
2022/03/17 09:10:05;;;;;;;7.85;4.20;;;;;;;8.88;83.62;101032.91;4997752;28;20176;-91
2022/03/17 09:12:33;;;;;;;4.38;3.97;;;;;;;9.06;84.07;101029.91;4999122;28;20037;-90
2022/03/17 09:14:58;;;;;;;6.05;4.13;;;;;;;9.15;83.59;101031.94;5000433;28;20029;-90
2022/03/17 09:17:24;;;;;;;9.35;4.43;;;;;;;9.15;83.53;101034.63;4999251;28;20079;-90
2022/03/17 09:19:49;;;;;;;9.30;4.60;;;;;;;9.14;82.53;101042.72;4999900;28;20113;-90
2022/03/17 09:22:25;;;;;;;7.55;4.10;;;;;;;9.01;81.53;101049.84;5002011;28;20049;-90
2022/03/17 09:24:51;;;;;;;4.68;3.80;;;;;;;8.85;80.77;101055.28;5001200;28;20045;-91
2022/03/17 09:27:16;;;;;;;6.10;4.13;;;;;;;8.89;80.88;101054.13;5004622;28;20034;-90
2022/03/17 09:29:41;;;;;;;8.02;3.92;;;;;;;9.00;81.17;101054.31;5005246;28;20056;-90
2022/03/17 09:32:09;;;;;;;6.35;4.18;;;;;;;9.08;81.16;101059.13;5005687;28;20033;-89
2022/03/17 09:34:35;;;;;;;5.97;3.88;;;;;;;9.01;80.39;101072.03;5019724;28;20030;-91
2022/03/17 09:37:00;;;;;;;6.00;4.07;;;;;;;9.00;79.90;101072.13;5017772;28;20057;-90
2022/03/17 09:39:45;;;;;;;4.78;3.30;;;;;;;8.92;79.24;101085.09;5004068;28;20471;-90
2022/03/17 09:42:15;;;;;;;4.68;3.38;;;;;;;8.78;78.54;101088.66;5006218;28;20133;-90
2022/03/17 09:44:41;;;;;;;6.45;3.03;;;;;;;8.84;78.73;101081.09;5002899;28;20029;-90
2022/03/17 09:47:09;;;;;;;5.68;3.35;;;;;;;8.91;79.46;101080.72;5002739;28;20080;-90
2022/03/17 09:49:39;;;;;;;3.55;2.40;;;;;;;8.91;78.90;101091.38;5000684;28;20025;-91
2022/03/17 09:52:11;;;;;;;3.90;1.90;;;;;;;8.88;77.74;101099.56;5001494;28;20045;-91
2022/03/17 09:54:37;;;;;;;3.60;1.70;;;;;;;8.90;77.46;101109.19;5018427;28;20056;-90
2022/03/17 09:57:03;;;;;;;4.90;1.90;;;;;;;8.92;77.42;101095.75;5018552;28;20038;-91
2022/03/17 09:59:28;;;;;;;5.28;1.63;;;;;;;8.88;77.02;101110.25;5003477;28;20036;-90
2022/03/17 10:01:54;;;;;;;2.83;1.40;;;;;;;8.82;76.59;101111.50;5018363;28;20508;-91
2022/03/17 10:04:19;;;;;;;3.78;1.55;;;;;;;8.78;77.09;101109.97;5003621;28;20017;-90
2022/03/17 10:06:47;;;;;;;3.58;1.35;;;;;;;8.74;76.24;101116.47;4985139;28;20422;-90
2022/03/17 10:09:12;;;;;;;4.28;1.20;;;;;;;8.80;76.34;101124.94;5003830;28;20044;-90
2022/03/17 10:11:37;;;;;;;3.17;1.17;;;;;;;8.86;76.40;101126.34;5002776;28;20950;-90
2022/03/17 10:14:05;;;;;;;2.08;1.10;;;;;;;8.88;76.09;101131.59;5002378;28;20112;-91
2022/03/17 10:16:31;;;;;;;2.75;1.27;;;;;;;8.93;76.20;101133.00;5010887;28;20025;-90
2022/03/17 10:18:58;;;;;;;2.88;1.13;;;;;;;8.97;75.69;101134.50;5001863;28;20076;-90
2022/03/17 10:21:24;;;;;;;4.05;1.52;;;;;;;9.04;75.96;101140.34;5022825;28;20091;-90
2022/03/17 10:24:06;;;;;;;2.25;1.13;;;;;;;9.10;nan;101137.28;5002183;28;20021;-90
2022/03/17 10:26:37;;;;;;;3.10;1.40;;;;;;;9.16;75.62;101147.56;5018248;28;20049;-90
2022/03/17 10:29:25;;;;;;;2.78;1.35;;;;;;;9.12;75.45;101151.38;5018308;28;20034;-91
2022/03/17 10:32:06;;;;;;;2.45;1.15;;;;;;;9.23;75.40;101153.34;5009784;28;20715;-90
2022/03/17 10:34:56;;;;;;;3.20;1.30;;;;;;;9.17;74.84;101157.28;5003182;28;20052;-90
2022/03/17 10:37:23;;;;;;;2.50;1.33;;;;;;;9.18;74.89;101161.66;5023976;28;20055;-90
2022/03/17 10:39:51;;;;;;;3.22;1.40;;;;;;;9.23;75.17;101170.22;5017652;28;20044;-90
2022/03/17 10:42:18;;;;;;;4.83;1.50;;;;;;;9.24;74.84;101176.41;5009956;28;20040;-90
2022/03/17 10:44:52;;;;;;;4.97;1.60;;;;;;;9.20;75.05;101165.06;5002046;28;20108;-91
2022/03/17 10:47:31;;;;;;;3.15;1.75;;;;;;;9.36;75.56;101167.59;5000028;28;20037;-90
2022/03/17 10:50:01;;;;;;;3.72;1.48;;;;;;;9.31;74.50;101167.91;5017965;28;20033;-90
2022/03/17 10:52:45;;;;;;;6.30;1.40;;;;;;;9.33;74.20;101171.31;5017119;28;20043;-90
2022/03/17 10:55:11;;;;;;;3.78;1.30;;;;;;;9.29;74.55;101175.16;5018117;28;20049;-90
2022/03/17 10:57:37;;;;;;;5.10;1.45;;;;;;;9.31;74.19;101175.06;5017850;28;20032;-89
2022/03/17 11:00:03;;;;;;;5.78;1.52;;;;;;;9.34;74.17;101185.53;5017547;28;20049;-90
2022/03/17 11:02:33;;;;;;;3.65;1.75;;;;;;;9.40;74.37;101183.31;5018772;28;20076;-91
2022/03/17 11:05:05;;;;;;;4.90;2.00;;;;;;;9.43;73.92;101191.13;5000242;28;20034;-90
2022/03/17 11:07:31;;;;;;;4.13;1.63;;;;;;;9.46;73.49;101190.09;5002896;28;20037;-90
2022/03/17 11:09:57;;;;;;;6.43;1.77;;;;;;;9.42;74.09;101196.56;5002049;28;20498;-89
2022/03/17 11:12:23;;;;;;;4.32;1.50;;;;;;;9.40;73.81;101199.31;5002039;28;20131;-90
2022/03/17 11:14:50;;;;;;;3.90;1.90;;;;;;;9.29;74.13;101207.19;5018566;28;20503;-90
2022/03/17 11:17:21;;;;;;;5.45;2.05;;;;;;;9.30;74.51;101202.69;5001800;28;20034;-90
2022/03/17 11:19:51;;;;;;;4.80;2.25;;;;;;;9.34;74.49;101204.22;5017118;28;20032;-90
2022/03/17 11:22:22;;;;;;;3.58;2.00;;;;;;;9.35;74.60;101208.59;5000534;28;20544;-91
2022/03/17 11:25:28;;;;;;;4.80;2.42;;;;;;;9.37;74.72;101207.53;5018095;28;20471;-90
2022/03/17 11:27:57;;;;;;;5.10;2.40;;;;;;;9.44;74.04;101210.66;5026619;28;20042;-90
2022/03/17 11:30:49;;;;;;;3.78;2.17;;;;;;;9.54;74.17;101210.94;5001286;28;20403;-91
2022/03/17 11:33:42;;;;;;;3.72;2.00;;;;;;;9.52;73.33;101218.22;5016192;28;20025;-90
2022/03/17 11:36:07;;;;;;;4.95;2.28;;;;;;;9.45;72.74;101210.56;5001532;28;20056;-90